Harbert, Michigan
Current Conditions -  °F | °C
As of 1:55 PM on Tuesday 27 Jan 2015 (Local Time) from KMGC Reporting Station
Clear Clear  
Wind Chill: -5°   Ceiling: Unl
Heat Index: -1°   Visibility: 10mi
Dew Point: -12°   Wind: 8mph
Humidity: 44%   Direction: 340°NNW
Pressure: 30.17"   Gusts: NA
Location:  41.87°N, 86.63°W
Report Text: KMGC 271855Z AUTO 34007KT 10SM CLR M01/M12 A3017 RMK AO2
Loading
Personal Weather Stations






























Interactive Weather Map New forecast layout! Learn more

10-Day Weather Forecast

Advertisements
Track Severe Weather on mobile